Time;durP1;ratioP1;P1;durP2;ratioP2;P2;SDS_P1;SDS_P2;PMS_P1;PMS_P2;Temp;Humidity;BMP_temperature;BMP_pressure;BME280_temperature;BME280_humidity;BME280_pressure;Samples;Min_cycle;Max_cycle;Signal;HPM_P1;HPM_P2
2023/08/16 00:00:24;;;;;;;1.48;0.60;;;;;;;;;;5059324;28;20029;-80
2023/08/16 00:02:50;;;;;;;1.17;0.63;;;;;;;;;;5059951;28;20050;-80
2023/08/16 00:05:16;;;;;;;1.80;0.70;;;;;;;;;;5057368;28;20033;-81
2023/08/16 00:07:42;;;;;;;1.00;0.60;;;;;;;;;;5058241;28;20025;-81
2023/08/16 00:10:12;;;;;;;1.23;0.80;;;;;;;;;;5058410;28;20029;-77
2023/08/16 00:12:38;;;;;;;3.30;1.00;;;;;;;;;;5056995;28;20028;-77
2023/08/16 00:15:06;;;;;;;1.63;0.80;;;;;;;;;;5058208;28;20029;-77
2023/08/16 00:17:32;;;;;;;2.40;0.80;;;;;;;;;;5057899;28;20108;-77
2023/08/16 00:19:59;;;;;;;3.03;0.82;;;;;;;;;;5058034;28;20108;-78
2023/08/16 00:22:25;;;;;;;2.05;0.80;;;;;;;;;;5056642;28;20021;-77
2023/08/16 00:24:51;;;;;;;1.88;0.63;;;;;;;;;;5056927;28;20029;-77
2023/08/16 00:27:17;;;;;;;1.20;0.80;;;;;;;;;;5058148;28;20059;-78
2023/08/16 00:29:43;;;;;;;1.15;0.70;;;;;;;;;;5057923;28;20021;-78
2023/08/16 00:32:11;;;;;;;2.85;0.88;;;;;;;;;;5049293;28;20517;-78
2023/08/16 00:34:37;;;;;;;0.90;0.68;;;;;;;;;;5057857;28;20081;-77
2023/08/16 00:37:03;;;;;;;0.95;0.70;;;;;;;;;;5056832;28;20036;-77
2023/08/16 00:39:29;;;;;;;2.75;0.85;;;;;;;;;;5046523;28;20029;-79
2023/08/16 00:41:55;;;;;;;1.35;0.82;;;;;;;;;;5057748;28;20024;-79
2023/08/16 00:44:21;;;;;;;1.73;1.05;;;;;;;;;;5057793;28;20029;-79
2023/08/16 00:46:47;;;;;;;1.27;0.70;;;;;;;;;;5056071;28;20021;-79
2023/08/16 00:49:13;;;;;;;1.52;0.80;;;;;;;;;;5057634;28;20017;-79
2023/08/16 00:51:39;;;;;;;1.35;0.90;;;;;;;;;;5057590;28;20029;-79
2023/08/16 00:54:06;;;;;;;1.73;0.80;;;;;;;;;;5057630;28;20840;-79
2023/08/16 00:56:32;;;;;;;1.38;0.65;;;;;;;;;;5056300;28;20025;-79
2023/08/16 00:58:58;;;;;;;1.67;0.80;;;;;;;;;;5057497;28;20074;-79
2023/08/16 01:01:24;;;;;;;2.15;0.77;;;;;;;;;;5060083;28;20025;-79
2023/08/16 01:03:50;;;;;;;1.05;0.73;;;;;;;;;;5057465;28;20025;-79
2023/08/16 01:06:16;;;;;;;2.03;0.85;;;;;;;;;;5057035;28;20025;-79
2023/08/16 01:08:43;;;;;;;2.88;0.80;;;;;;;;;;5056321;28;20021;-79
2023/08/16 01:11:32;;;;;;;2.22;0.82;;;;;;;;;;5056999;28;20100;-79
2023/08/16 01:14:19;;;;;;;2.22;0.80;;;;;;;;;;5038865;28;20119;-80
2023/08/16 01:16:45;;;;;;;2.13;0.95;;;;;;;;;;5042005;28;20034;-80
2023/08/16 01:19:14;;;;;;;1.75;0.93;;;;;;;;;;5055927;28;20071;-79
2023/08/16 01:21:43;;;;;;;1.90;0.90;;;;;;;;;;5057419;28;20508;-80
2023/08/16 01:24:16;;;;;;;2.55;1.20;;;;;;;;;;5056782;28;20022;-80
2023/08/16 01:26:43;;;;;;;1.15;0.70;;;;;;;;;;5055464;28;20028;-80
2023/08/16 01:29:10;;;;;;;2.28;1.00;;;;;;;;;;5055952;28;20032;-81
2023/08/16 01:31:36;;;;;;;1.70;0.98;;;;;;;;;;5056584;28;20029;-80
2023/08/16 01:34:02;;;;;;;1.80;0.88;;;;;;;;;;5057039;28;20536;-80
2023/08/16 01:36:28;;;;;;;3.20;1.00;;;;;;;;;;5056678;28;20106;-81
2023/08/16 01:38:55;;;;;;;2.63;0.98;;;;;;;;;;5056445;28;20394;-80
2023/08/16 01:41:42;;;;;;;1.50;0.95;;;;;;;;;;5053763;28;20036;-80
2023/08/16 01:44:08;;;;;;;2.13;1.02;;;;;;;;;;5055716;28;20029;-80
2023/08/16 01:46:35;;;;;;;2.05;0.98;;;;;;;;;;5055227;28;20032;-81
2023/08/16 01:49:02;;;;;;;3.75;1.10;;;;;;;;;;5056550;28;20084;-78
2023/08/16 01:51:28;;;;;;;1.35;0.88;;;;;;;;;;5055337;28;20021;-78
2023/08/16 01:53:54;;;;;;;3.08;0.90;;;;;;;;;;5056525;28;20153;-78
2023/08/16 01:56:21;;;;;;;1.80;1.10;;;;;;;;;;5055041;28;20505;-77
2023/08/16 01:58:47;;;;;;;2.13;1.23;;;;;;;;;;5056586;28;20033;-78
2023/08/16 02:01:13;;;;;;;2.08;0.90;;;;;;;;;;5059396;28;20508;-78
2023/08/16 02:03:40;;;;;;;1.35;1.00;;;;;;;;;;5056588;28;20052;-77
2023/08/16 02:06:05;;;;;;;2.22;1.00;;;;;;;;;;5056236;28;20366;-78
2023/08/16 02:08:31;;;;;;;3.13;1.48;;;;;;;;;;5056169;28;20036;-78
2023/08/16 02:10:57;;;;;;;2.42;1.60;;;;;;;;;;5056602;28;20037;-78
2023/08/16 02:13:24;;;;;;;1.65;1.20;;;;;;;;;;5056432;28;20032;-78
2023/08/16 02:15:49;;;;;;;2.35;1.00;;;;;;;;;;5056520;28;20065;-78
2023/08/16 02:18:15;;;;;;;2.58;0.90;;;;;;;;;;5056255;28;20081;-82
2023/08/16 02:20:42;;;;;;;2.28;1.20;;;;;;;;;;5055582;28;20082;-81
2023/08/16 02:23:08;;;;;;;1.50;1.10;;;;;;;;;;5056396;28;20497;-81
2023/08/16 02:25:34;;;;;;;2.63;1.10;;;;;;;;;;5056325;28;20028;-80
2023/08/16 02:28:00;;;;;;;1.10;0.90;;;;;;;;;;5055219;28;20084;-80
2023/08/16 02:30:27;;;;;;;2.25;1.20;;;;;;;;;;5056431;28;20508;-80
2023/08/16 02:32:54;;;;;;;1.73;0.90;;;;;;;;;;5056178;28;20021;-79
2023/08/16 02:35:20;;;;;;;2.10;1.00;;;;;;;;;;5056353;28;20024;-79
2023/08/16 02:37:46;;;;;;;1.27;0.80;;;;;;;;;;5056385;28;20130;-79
2023/08/16 02:40:12;;;;;;;2.75;1.20;;;;;;;;;;5056173;28;20029;-80
2023/08/16 02:42:38;;;;;;;2.08;1.20;;;;;;;;;;5055169;28;20049;-83
2023/08/16 02:45:05;;;;;;;2.83;1.10;;;;;;;;;;5055094;28;20028;-81
2023/08/16 02:47:31;;;;;;;1.75;1.00;;;;;;;;;;5054537;28;20389;-82
2023/08/16 02:49:57;;;;;;;2.00;1.23;;;;;;;;;;5056228;28;20036;-83
2023/08/16 02:52:23;;;;;;;3.78;1.30;;;;;;;;;;5055209;28;20433;-83
2023/08/16 02:54:49;;;;;;;3.25;1.50;;;;;;;;;;5055955;28;20021;-82
2023/08/16 02:57:18;;;;;;;2.30;1.20;;;;;;;;;;5056290;28;20032;-83
2023/08/16 02:59:47;;;;;;;2.65;1.20;;;;;;;;;;5056302;28;20036;-83
2023/08/16 03:02:14;;;;;;;1.60;1.10;;;;;;;;;;5063113;28;20054;-80
2023/08/16 03:04:40;;;;;;;2.42;1.33;;;;;;;;;;5058405;28;20032;-80
2023/08/16 03:07:07;;;;;;;3.60;1.65;;;;;;;;;;5059793;28;20025;-80
2023/08/16 03:09:33;;;;;;;3.10;1.40;;;;;;;;;;5058474;28;20036;-80
2023/08/16 03:11:59;;;;;;;3.08;1.90;;;;;;;;;;5058294;28;20039;-79
2023/08/16 03:14:25;;;;;;;2.45;1.20;;;;;;;;;;5059491;28;20028;-78
2023/08/16 03:16:51;;;;;;;3.67;1.65;;;;;;;;;;5059074;28;20029;-79
2023/08/16 03:19:17;;;;;;;2.40;1.15;;;;;;;;;;5059692;28;20108;-78
2023/08/16 03:21:44;;;;;;;1.80;1.10;;;;;;;;;;5058360;28;20052;-80
2023/08/16 03:24:10;;;;;;;2.65;1.17;;;;;;;;;;5058093;28;20021;-80
2023/08/16 03:26:36;;;;;;;2.42;1.30;;;;;;;;;;5059346;28;20031;-79
2023/08/16 03:29:03;;;;;;;2.55;1.48;;;;;;;;;;5058071;28;20040;-77
2023/08/16 03:31:29;;;;;;;2.25;1.50;;;;;;;;;;5059093;28;20123;-76
2023/08/16 03:33:55;;;;;;;2.28;1.13;;;;;;;;;;5059104;28;20029;-77
2023/08/16 03:36:21;;;;;;;2.25;1.23;;;;;;;;;;5059445;28;20471;-81
2023/08/16 03:38:47;;;;;;;2.90;1.55;;;;;;;;;;5059130;28;20028;-81
2023/08/16 03:41:13;;;;;;;2.45;1.40;;;;;;;;;;5059154;28;20104;-79
2023/08/16 03:43:39;;;;;;;2.45;1.40;;;;;;;;;;5057972;28;20121;-78
2023/08/16 03:46:05;;;;;;;2.67;1.30;;;;;;;;;;5058685;28;20500;-78
2023/08/16 03:48:32;;;;;;;2.65;1.63;;;;;;;;;;5058850;28;20699;-78
2023/08/16 03:50:58;;;;;;;2.35;1.33;;;;;;;;;;5058842;28;20055;-78
2023/08/16 03:53:24;;;;;;;2.33;1.50;;;;;;;;;;5058651;28;20571;-77
2023/08/16 03:55:55;;;;;;;3.92;1.90;;;;;;;;;;5058543;28;20106;-80
2023/08/16 03:58:21;;;;;;;4.85;1.70;;;;;;;;;;5057539;28;20028;-81
2023/08/16 04:00:54;;;;;;;3.92;1.60;;;;;;;;;;5061053;28;20439;-80
2023/08/16 04:03:20;;;;;;;1.88;1.40;;;;;;;;;;5058953;28;20025;-80
2023/08/16 04:05:46;;;;;;;2.70;1.33;;;;;;;;;;5058578;28;20025;-80
2023/08/16 04:08:13;;;;;;;2.38;1.33;;;;;;;;;;5057225;28;20067;-80
2023/08/16 04:10:39;;;;;;;3.17;1.55;;;;;;;;;;5058427;28;20021;-80
2023/08/16 04:13:05;;;;;;;3.58;1.63;;;;;;;;;;5057454;28;20086;-80
2023/08/16 04:15:31;;;;;;;3.45;1.85;;;;;;;;;;5058441;28;20074;-80
2023/08/16 04:17:57;;;;;;;2.85;1.50;;;;;;;;;;5058300;28;20502;-80
2023/08/16 04:20:23;;;;;;;2.80;1.67;;;;;;;;;;5057120;28;20099;-80
2023/08/16 04:22:50;;;;;;;4.00;1.60;;;;;;;;;;5058404;28;20502;-81
2023/08/16 04:25:16;;;;;;;2.72;1.52;;;;;;;;;;5057934;28;20028;-78
2023/08/16 04:27:42;;;;;;;2.47;1.80;;;;;;;;;;5058235;28;20029;-78
2023/08/16 04:30:09;;;;;;;2.75;1.40;;;;;;;;;;5058099;28;20087;-78
2023/08/16 04:32:35;;;;;;;3.63;1.83;;;;;;;;;;5057752;28;20120;-77
2023/08/16 04:35:02;;;;;;;1.80;1.35;;;;;;;;;;5058168;28;20025;-81
2023/08/16 04:37:28;;;;;;;2.40;1.48;;;;;;;;;;5056837;28;20082;-80
2023/08/16 04:39:54;;;;;;;2.05;1.48;;;;;;;;;;5044517;28;20076;-80
2023/08/16 04:42:20;;;;;;;2.45;1.20;;;;;;;;;;5057920;28;20025;-80
2023/08/16 04:44:46;;;;;;;2.63;1.55;;;;;;;;;;5056785;28;20396;-80
2023/08/16 04:47:12;;;;;;;3.15;1.55;;;;;;;;;;5057532;28;20104;-80
2023/08/16 04:49:38;;;;;;;2.60;1.20;;;;;;;;;;5056658;28;20021;-82
2023/08/16 04:52:04;;;;;;;2.25;1.60;;;;;;;;;;5056695;28;20048;-82
2023/08/16 04:54:30;;;;;;;3.53;1.60;;;;;;;;;;5056557;28;20025;-82
2023/08/16 04:56:56;;;;;;;3.30;1.50;;;;;;;;;;5057326;28;20561;-82
2023/08/16 04:59:22;;;;;;;3.83;1.50;;;;;;;;;;5056524;28;20021;-81
2023/08/16 05:01:48;;;;;;;2.30;1.42;;;;;;;;;;5059592;28;20039;-81
2023/08/16 05:04:14;;;;;;;3.10;1.73;;;;;;;;;;5056033;28;20107;-81
2023/08/16 05:06:40;;;;;;;4.05;1.45;;;;;;;;;;5057469;28;20119;-78
2023/08/16 05:09:06;;;;;;;2.38;1.40;;;;;;;;;;5057356;28;20053;-78
2023/08/16 05:11:32;;;;;;;1.70;1.33;;;;;;;;;;5057261;28;20378;-78
2023/08/16 05:13:58;;;;;;;2.75;1.52;;;;;;;;;;5057030;28;20017;-79
2023/08/16 05:16:25;;;;;;;2.90;1.20;;;;;;;;;;5057137;28;20047;-79
2023/08/16 05:18:52;;;;;;;2.60;1.58;;;;;;;;;;5057219;28;20436;-79
2023/08/16 05:21:19;;;;;;;3.42;1.50;;;;;;;;;;5057500;28;20082;-78
2023/08/16 05:23:45;;;;;;;2.30;1.45;;;;;;;;;;5056441;28;20017;-79
2023/08/16 05:26:11;;;;;;;2.38;1.60;;;;;;;;;;5056585;28;20473;-79
2023/08/16 05:28:37;;;;;;;4.72;1.80;;;;;;;;;;5056841;28;20033;-79
2023/08/16 05:31:09;;;;;;;4.47;1.40;;;;;;;;;;5056892;28;20404;-79
2023/08/16 05:33:36;;;;;;;3.75;1.70;;;;;;;;;;5057057;28;20026;-79
2023/08/16 05:36:03;;;;;;;3.33;1.65;;;;;;;;;;5042827;28;20502;-78
2023/08/16 05:38:29;;;;;;;2.38;1.40;;;;;;;;;;5036898;28;20385;-77
2023/08/16 05:40:55;;;;;;;3.33;1.30;;;;;;;;;;5077458;28;20029;-77
2023/08/16 05:43:21;;;;;;;2.83;1.50;;;;;;;;;;5055844;28;20036;-77
2023/08/16 05:45:47;;;;;;;3.65;1.48;;;;;;;;;;5056658;28;20035;-81
2023/08/16 05:48:13;;;;;;;2.65;1.30;;;;;;;;;;5055292;28;20021;-81
2023/08/16 05:50:39;;;;;;;1.70;1.20;;;;;;;;;;5056627;28;20036;-82
2023/08/16 05:53:05;;;;;;;2.00;1.35;;;;;;;;;;5051135;28;20045;-81
2023/08/16 05:55:31;;;;;;;1.63;1.25;;;;;;;;;;5054389;28;20028;-85
2023/08/16 05:57:57;;;;;;;2.65;1.20;;;;;;;;;;5056692;28;20039;-85
2023/08/16 06:00:23;;;;;;;3.05;1.48;;;;;;;;;;5056235;28;20029;-83
2023/08/16 06:02:49;;;;;;;4.95;1.48;;;;;;;;;;5058470;28;20024;-83
2023/08/16 06:05:16;;;;;;;2.40;1.38;;;;;;;;;;5055600;28;20032;-83
2023/08/16 06:07:42;;;;;;;3.00;1.40;;;;;;;;;;5055036;28;20021;-83
2023/08/16 06:10:08;;;;;;;4.28;1.55;;;;;;;;;;5052558;28;20028;-83
2023/08/16 06:12:34;;;;;;;2.83;1.30;;;;;;;;;;5055242;28;20022;-83
2023/08/16 06:15:00;;;;;;;3.80;1.40;;;;;;;;;;5055376;28;20084;-83
2023/08/16 06:17:26;;;;;;;3.05;1.30;;;;;;;;;;5056031;28;20052;-82
2023/08/16 06:19:52;;;;;;;1.90;1.38;;;;;;;;;;5056409;28;20033;-82
2023/08/16 06:22:18;;;;;;;2.72;1.48;;;;;;;;;;5056087;28;20041;-78
2023/08/16 06:24:44;;;;;;;2.67;1.33;;;;;;;;;;5055898;28;20037;-78
2023/08/16 06:27:10;;;;;;;3.60;1.70;;;;;;;;;;5056195;28;20028;-78
2023/08/16 06:29:36;;;;;;;2.40;1.60;;;;;;;;;;5056475;28;20057;-78
2023/08/16 06:32:02;;;;;;;3.35;1.45;;;;;;;;;;5055759;28;20024;-78
2023/08/16 06:34:29;;;;;;;3.13;1.52;;;;;;;;;;5056021;28;20393;-78
2023/08/16 06:36:55;;;;;;;5.18;1.40;;;;;;;;;;5059504;28;20017;-78
2023/08/16 06:39:21;;;;;;;2.88;1.67;;;;;;;;;;5048456;28;20087;-78
2023/08/16 06:41:47;;;;;;;3.33;1.45;;;;;;;;;;5039783;28;20508;-78
2023/08/16 06:44:13;;;;;;;2.42;1.58;;;;;;;;;;5039979;28;20056;-80
2023/08/16 06:46:39;;;;;;;2.92;1.48;;;;;;;;;;5039987;28;20026;-78
2023/08/16 06:49:05;;;;;;;2.65;1.30;;;;;;;;;;5041355;28;20029;-78
2023/08/16 06:51:31;;;;;;;2.80;1.42;;;;;;;;;;5039976;28;20097;-80
2023/08/16 06:53:57;;;;;;;3.55;1.20;;;;;;;;;;5039826;28;20088;-69
2023/08/16 06:56:23;;;;;;;3.03;1.50;;;;;;;;;;5039664;28;20021;-69
2023/08/16 06:58:50;;;;;;;2.05;1.30;;;;;;;;;;5039806;28;20125;-72
2023/08/16 07:01:16;;;;;;;2.28;1.27;;;;;;;;;;5045340;28;20025;-72
2023/08/16 07:03:42;;;;;;;4.32;1.42;;;;;;;;;;5041390;28;20029;-71
2023/08/16 07:06:08;;;;;;;2.13;1.20;;;;;;;;;;5052461;28;20025;-72
2023/08/16 07:08:34;;;;;;;1.95;1.10;;;;;;;;;;5037765;28;21044;-69
2023/08/16 07:11:00;;;;;;;3.53;1.20;;;;;;;;;;5037796;28;20482;-67
2023/08/16 07:13:26;;;;;;;3.22;1.45;;;;;;;;;;5038736;28;20120;-68
2023/08/16 07:15:52;;;;;;;3.55;1.30;;;;;;;;;;5038742;28;20478;-68
2023/08/16 07:18:18;;;;;;;2.22;1.42;;;;;;;;;;5038483;28;20029;-68
2023/08/16 07:20:44;;;;;;;3.92;1.73;;;;;;;;;;5038015;28;20140;-67
2023/08/16 07:23:11;;;;;;;2.25;1.58;;;;;;;;;;5038989;28;20025;-72
2023/08/16 07:25:37;;;;;;;2.42;1.30;;;;;;;;;;5038603;28;20032;-71
2023/08/16 07:28:04;;;;;;;1.88;1.10;;;;;;;;;;5043998;28;20386;-71
2023/08/16 07:30:30;;;;;;;2.63;1.20;;;;;;;;;;5035565;28;20052;-71
2023/08/16 07:32:56;;;;;;;2.53;1.25;;;;;;;;;;5036687;28;20033;-71
2023/08/16 07:35:22;;;;;;;3.17;1.30;;;;;;;;;;5038212;28;20075;-71
2023/08/16 07:37:48;;;;;;;1.52;1.10;;;;;;;;;;5037466;28;20041;-71
2023/08/16 07:40:14;;;;;;;1.90;1.00;;;;;;;;;;5038818;28;20036;-71
2023/08/16 07:42:40;;;;;;;2.38;1.35;;;;;;;;;;5039168;28;20026;-71
2023/08/16 07:45:07;;;;;;;2.55;1.10;;;;;;;;;;5038354;28;20026;-71
2023/08/16 07:47:33;;;;;;;2.55;1.00;;;;;;;;;;5057596;28;20029;-71
2023/08/16 07:49:59;;;;;;;1.55;0.95;;;;;;;;;;5043094;28;20481;-71
2023/08/16 07:52:25;;;;;;;2.15;0.80;;;;;;;;;;5046825;28;20037;-71
2023/08/16 07:54:51;;;;;;;1.45;1.08;;;;;;;;;;5048244;28;20039;-71
2023/08/16 07:57:17;;;;;;;2.30;1.30;;;;;;;;;;5041529;28;20033;-71
2023/08/16 07:59:43;;;;;;;3.58;1.30;;;;;;;;;;5039108;28;20382;-71
2023/08/16 08:02:09;;;;;;;1.83;0.90;;;;;;;;;;5043626;28;20151;-71
2023/08/16 08:04:36;;;;;;;2.28;1.10;;;;;;;;;;5051613;28;20107;-71
2023/08/16 08:07:03;;;;;;;1.50;1.10;;;;;;;;;;5055905;28;20461;-71
2023/08/16 08:09:30;;;;;;;2.08;0.98;;;;;;;;;;5056292;28;20025;-71
2023/08/16 08:11:56;;;;;;;2.13;1.00;;;;;;;;;;5058481;28;20021;-71
2023/08/16 08:14:22;;;;;;;1.50;0.80;;;;;;;;;;5057389;28;20500;-71
2023/08/16 08:16:50;;;;;;;1.20;0.90;;;;;;;;;;5056851;28;20028;-71
2023/08/16 08:19:16;;;;;;;1.65;0.85;;;;;;;;;;5058701;28;20036;-71
2023/08/16 08:21:42;;;;;;;2.63;0.82;;;;;;;;;;5057042;28;20472;-71
2023/08/16 08:24:08;;;;;;;2.58;0.80;;;;;;;;;;5058349;28;20029;-71
2023/08/16 08:26:35;;;;;;;1.20;0.63;;;;;;;;;;5058242;28;20029;-71
2023/08/16 08:29:01;;;;;;;2.50;0.80;;;;;;;;;;5058255;28;20066;-71
2023/08/16 08:31:27;;;;;;;1.30;0.68;;;;;;;;;;5056726;28;20500;-71
2023/08/16 08:33:53;;;;;;;2.55;1.00;;;;;;;;;;5057902;28;20025;-71
2023/08/16 08:36:20;;;;;;;0.75;0.70;;;;;;;;;;5058131;28;20382;-71
2023/08/16 08:38:46;;;;;;;1.63;0.90;;;;;;;;;;5051394;28;20545;-71
2023/08/16 08:41:12;;;;;;;1.48;0.70;;;;;;;;;;5036605;28;20084;-71
2023/08/16 08:43:40;;;;;;;1.13;0.55;;;;;;;;;;5037994;28;20029;-72
2023/08/16 08:46:06;;;;;;;2.10;0.75;;;;;;;;;;5037848;28;20025;-71
2023/08/16 08:48:33;;;;;;;1.75;0.73;;;;;;;;;;5039853;28;20018;-71
2023/08/16 08:51:03;;;;;;;0.90;0.60;;;;;;;;;;5037760;28;20120;-71
2023/08/16 08:53:29;;;;;;;1.42;0.60;;;;;;;;;;5037653;28;20076;-71
2023/08/16 08:55:56;;;;;;;2.63;0.65;;;;;;;;;;5037650;28;20030;-71
2023/08/16 08:58:25;;;;;;;1.42;0.60;;;;;;;;;;5037193;28;20405;-71
2023/08/16 09:00:52;;;;;;;1.83;0.60;;;;;;;;;;5043617;28;20028;-71
2023/08/16 09:03:20;;;;;;;1.65;0.75;;;;;;;;;;5037799;28;20054;-71
2023/08/16 09:05:47;;;;;;;1.45;0.60;;;;;;;;;;5037277;28;20367;-72
2023/08/16 09:08:15;;;;;;;2.78;0.68;;;;;;;;;;5037645;28;20021;-71
2023/08/16 09:10:42;;;;;;;1.90;0.60;;;;;;;;;;5037427;28;20493;-71
2023/08/16 09:13:10;;;;;;;1.20;0.80;;;;;;;;;;5037464;28;20057;-71
2023/08/16 09:15:36;;;;;;;0.73;0.57;;;;;;;;;;5037194;28;20029;-71
2023/08/16 09:18:13;;;;;;;2.30;0.70;;;19.60;99.90;;;;;;5035918;28;20049;-71
2023/08/16 09:20:39;;;;;;;0.95;0.50;;;19.60;99.90;;;;;;5036984;28;20026;-71
2023/08/16 09:23:06;;;;;;;1.70;0.40;;;19.70;99.90;;;;;;5036010;28;20022;-71
2023/08/16 09:25:32;;;;;;;1.10;0.60;;;19.80;99.90;;;;;;5037052;28;20168;-71
2023/08/16 09:27:57;;;;;;;2.53;0.75;;;19.80;99.90;;;;;;5037166;28;20061;-71
2023/08/16 09:30:28;;;;;;;0.90;0.60;;;19.80;99.90;;;;;;5037339;28;20037;-72
2023/08/16 09:32:55;;;;;;;1.05;0.60;;;19.90;99.90;;;;;;5037174;28;20053;-72
2023/08/16 09:35:28;;;;;;;1.88;0.60;;;19.90;99.90;;;;;;5036947;28;20371;-72
2023/08/16 09:37:57;;;;;;;2.45;0.63;;;20.00;99.90;;;;;;5035856;28;20430;-72
2023/08/16 09:40:24;;;;;;;0.85;0.50;;;20.10;99.90;;;;;;5036921;28;20687;-71
2023/08/16 09:42:49;;;;;;;1.55;0.65;;;20.10;99.90;;;;;;5036956;28;20032;-71
2023/08/16 09:45:15;;;;;;;1.05;0.65;;;20.20;99.90;;;;;;5036962;28;20093;-71
2023/08/16 09:47:44;;;;;;;1.65;0.70;;;20.20;99.90;;;;;;5037919;28;20021;-72
2023/08/16 09:50:10;;;;;;;2.00;0.75;;;20.30;99.90;;;;;;5037068;28;20092;-72
2023/08/16 09:52:37;;;;;;;1.63;0.60;;;20.30;99.90;;;;;;5035382;28;20068;-72
2023/08/16 09:55:03;;;;;;;1.45;0.68;;;20.40;99.90;;;;;;5036794;28;20021;-72
2023/08/16 09:57:30;;;;;;;1.60;0.70;;;20.40;99.90;;;;;;5036816;28;20025;-72
2023/08/16 09:59:56;;;;;;;1.30;0.57;;;20.50;99.90;;;;;;5037017;28;20030;-72
2023/08/16 10:02:22;;;;;;;3.45;0.63;;;20.60;99.90;;;;;;5041740;28;20045;-71
2023/08/16 10:04:48;;;;;;;2.30;0.68;;;20.60;99.90;;;;;;5036839;28;20032;-72
2023/08/16 10:07:15;;;;;;;1.92;0.60;;;20.60;99.90;;;;;;5043093;28;20028;-71
2023/08/16 10:09:44;;;;;;;2.33;0.70;;;20.70;99.90;;;;;;5037856;28;20087;-72
2023/08/16 10:12:11;;;;;;;1.95;0.70;;;20.70;99.90;;;;;;5039196;28;20017;-71
2023/08/16 10:14:38;;;;;;;0.82;0.57;;;20.80;99.90;;;;;;5039623;28;20025;-70
2023/08/16 10:17:08;;;;;;;2.05;0.70;;;20.90;99.90;;;;;;5039362;28;20060;-71
2023/08/16 10:19:37;;;;;;;1.63;0.60;;;20.90;99.90;;;;;;5039546;28;20025;-71
2023/08/16 10:22:08;;;;;;;1.63;0.60;;;20.80;99.90;;;;;;5039507;28;20026;-71
2023/08/16 10:24:35;;;;;;;1.05;0.50;;;20.90;99.90;;;;;;5039300;28;20029;-72
2023/08/16 10:27:03;;;;;;;2.00;0.80;;;20.80;99.90;;;;;;5039101;28;20362;-71
2023/08/16 10:29:36;;;;;;;1.65;0.70;;;20.90;99.90;;;;;;5039331;28;20044;-72
2023/08/16 10:32:07;;;;;;;1.02;0.60;;;20.90;99.90;;;;;;5039042;28;20048;-71
2023/08/16 10:34:34;;;;;;;1.13;0.70;;;21.10;99.90;;;;;;5039622;28;20026;-72
2023/08/16 10:37:01;;;;;;;1.58;0.68;;;21.20;99.90;;;;;;5038959;28;20470;-72
2023/08/16 10:39:30;;;;;;;2.17;0.70;;;21.20;99.90;;;;;;5049692;28;20040;-70
2023/08/16 10:42:05;;;;;;;2.13;0.90;;;21.30;99.90;;;;;;5038859;28;20029;-70
2023/08/16 10:44:32;;;;;;;0.90;0.70;;;21.20;99.40;;;;;;5039006;28;20103;-70
2023/08/16 10:46:58;;;;;;;2.15;0.75;;;21.20;99.90;;;;;;5038739;28;20018;-70
2023/08/16 10:49:39;;;;;;;3.03;0.70;;;21.40;99.90;;;;;;5040430;28;20029;-70
2023/08/16 10:52:06;;;;;;;2.05;0.80;;;21.40;99.90;;;;;;5038917;28;20025;-70
2023/08/16 10:54:35;;;;;;;1.35;0.68;;;21.40;98.60;;;;;;5037250;28;20569;-75
2023/08/16 10:57:04;;;;;;;1.13;0.63;;;21.40;98.40;;;;;;5038495;28;20036;-71
2023/08/16 10:59:38;;;;;;;0.70;0.50;;;21.30;97.80;;;;;;5038252;28;20028;-70
2023/08/16 11:02:17;;;;;;;1.20;0.70;;;21.50;99.70;;;;;;5043974;28;20049;-71
2023/08/16 11:04:45;;;;;;;1.20;0.60;;;21.70;99.50;;;;;;5038087;28;20110;-72
2023/08/16 11:07:12;;;;;;;2.13;0.60;;;21.90;99.50;;;;;;5037984;28;20025;-72
2023/08/16 11:09:38;;;;;;;1.65;0.80;;;22.00;98.00;;;;;;5038461;28;20466;-72
2023/08/16 11:12:06;;;;;;;1.42;0.80;;;22.00;97.10;;;;;;5038140;28;20487;-70
2023/08/16 11:14:33;;;;;;;0.90;0.60;;;22.10;98.10;;;;;;5037894;28;20813;-70
2023/08/16 11:16:59;;;;;;;0.95;0.50;;;22.30;97.80;;;;;;5038027;28;20021;-70
2023/08/16 11:19:25;;;;;;;1.38;0.60;;;22.60;97.80;;;;;;5038225;28;20034;-70
2023/08/16 11:21:51;;;;;;;1.40;0.80;;;22.80;96.90;;;;;;5037401;28;20021;-70
2023/08/16 11:24:18;;;;;;;1.10;0.60;;;22.90;96.70;;;;;;5037814;28;20025;-70
2023/08/16 11:26:43;;;;;;;1.98;0.82;;;22.90;96.40;;;;;;5040700;28;20060;-70
2023/08/16 11:29:09;;;;;;;1.92;0.80;;;22.80;94.00;;;;;;5035629;28;20141;-70
2023/08/16 11:31:36;;;;;;;3.92;0.85;;;22.70;95.20;;;;;;5036836;28;20026;-70
2023/08/16 11:34:07;;;;;;;0.98;0.60;;;22.70;94.90;;;;;;5037533;28;20040;-70
2023/08/16 11:36:35;;;;;;;1.58;0.70;;;22.60;93.30;;;;;;5036460;28;20030;-68
2023/08/16 11:39:01;;;;;;;2.45;0.70;;;22.40;95.00;;;;;;5036213;28;20354;-69
2023/08/16 11:41:26;;;;;;;0.95;0.70;;;22.50;94.00;;;;;;5037649;28;20191;-68
2023/08/16 11:43:59;;;;;;;1.33;0.63;;;22.50;94.90;;;;;;5037394;28;20079;-69
2023/08/16 11:46:25;;;;;;;1.40;0.80;;;22.50;95.90;;;;;;5037132;28;20440;-69
2023/08/16 11:48:50;;;;;;;1.90;0.77;;;22.70;96.20;;;;;;5040265;28;20026;-69
2023/08/16 11:51:16;;;;;;;1.17;0.70;;;23.00;96.30;;;;;;5038923;28;20029;-69
2023/08/16 11:53:42;;;;;;;1.27;0.70;;;23.20;95.20;;;;;;5038604;28;20123;-69
2023/08/16 11:56:08;;;;;;;0.95;0.60;;;23.50;95.60;;;;;;5038768;28;20029;-69
2023/08/16 11:58:47;;;;;;;1.65;0.77;;;23.60;94.80;;;;;;5039195;28;20030;-69
2023/08/16 12:01:21;;;;;;;1.40;0.93;;;23.60;93.60;;;;;;5044344;28;20025;-69
2023/08/16 12:03:46;;;;;;;1.60;0.50;;;23.60;93.10;;;;;;5038795;28;20470;-69
2023/08/16 12:06:13;;;;;;;3.13;0.60;;;23.60;93.30;;;;;;5038513;28;20075;-69
2023/08/16 12:08:49;;;;;;;1.38;0.80;;;23.50;93.30;;;;;;5038817;28;20029;-69
2023/08/16 12:11:25;;;;;;;1.92;0.70;;;23.70;93.40;;;;;;5044080;28;20021;-69
2023/08/16 12:13:50;;;;;;;1.05;0.55;;;23.70;93.60;;;;;;5057355;28;20029;-69
2023/08/16 12:16:16;;;;;;;1.77;0.50;;;23.80;93.50;;;;;;5058513;28;20021;-69
2023/08/16 12:18:41;;;;;;;1.45;0.82;;;24.10;97.50;;;;;;5058373;28;20040;-69
2023/08/16 12:21:07;;;;;;;1.92;0.68;;;24.10;92.30;;;;;;5058537;28;20079;-69
2023/08/16 12:23:34;;;;;;;1.17;0.60;;;24.10;92.00;;;;;;5058252;28;20423;-69
2023/08/16 12:26:00;;;;;;;1.35;0.60;;;24.10;91.10;;;;;;5058595;28;20017;-69
2023/08/16 12:28:25;;;;;;;1.35;0.50;;;24.20;91.10;;;;;;5058101;28;20021;-69
2023/08/16 12:30:51;;;;;;;1.73;0.77;;;24.20;87.40;;;;;;5058124;28;20106;-69
2023/08/16 12:33:16;;;;;;;1.75;0.68;;;24.30;90.30;;;;;;5057054;28;20036;-69
2023/08/16 12:35:42;;;;;;;0.82;0.55;;;24.30;90.80;;;;;;5058190;28;20086;-69
2023/08/16 12:38:08;;;;;;;1.63;0.80;;;24.30;90.70;;;;;;5056301;28;20037;-70
2023/08/16 12:40:33;;;;;;;2.58;0.70;;;24.50;90.70;;;;;;5038126;28;20423;-69
2023/08/16 12:43:01;;;;;;;1.67;0.70;;;24.60;88.80;;;;;;5036682;28;20057;-69
2023/08/16 12:45:27;;;;;;;1.13;0.60;;;24.70;89.80;;;;;;5037690;28;20076;-69
2023/08/16 12:47:53;;;;;;;1.58;0.60;;;24.70;87.60;;;;;;5039609;28;20029;-69
2023/08/16 12:50:19;;;;;;;1.02;0.50;;;24.60;87.90;;;;;;5037671;28;20018;-69
2023/08/16 12:52:45;;;;;;;0.93;0.50;;;24.60;89.00;;;;;;5037917;28;20057;-69
2023/08/16 12:55:10;;;;;;;1.33;0.52;;;24.60;88.30;;;;;;5036297;28;20113;-70
2023/08/16 12:57:37;;;;;;;1.00;0.65;;;24.60;82.20;;;;;;5037609;28;20076;-70
2023/08/16 13:00:03;;;;;;;1.35;0.60;;;24.50;84.40;;;;;;5037788;28;20421;-69
2023/08/16 13:02:29;;;;;;;0.95;0.52;;;24.50;86.60;;;;;;5043771;28;20026;-70
2023/08/16 13:04:55;;;;;;;1.77;0.60;;;24.50;85.60;;;;;;5037486;28;20567;-69
2023/08/16 13:07:20;;;;;;;1.83;0.75;;;24.60;88.30;;;;;;5036114;28;20032;-69
2023/08/16 13:09:46;;;;;;;1.63;0.77;;;24.70;85.50;;;;;;5037639;28;20117;-69
2023/08/16 13:12:12;;;;;;;1.67;0.70;;;24.90;87.80;;;;;;5037482;28;20390;-69
2023/08/16 13:14:37;;;;;;;1.35;0.57;;;25.10;86.40;;;;;;5037511;28;20025;-69
2023/08/16 13:17:04;;;;;;;1.23;0.63;;;25.20;88.80;;;;;;5037239;28;20033;-69
2023/08/16 13:19:30;;;;;;;1.55;0.50;;;25.20;86.00;;;;;;5037246;28;20033;-69
2023/08/16 13:21:58;;;;;;;0.73;0.50;;;25.20;80.10;;;;;;5037285;28;20032;-69
2023/08/16 13:24:24;;;;;;;0.70;0.55;;;25.20;83.20;;;;;;5037238;28;20025;-69
2023/08/16 13:26:50;;;;;;;0.98;0.70;;;25.30;83.60;;;;;;5037176;28;20111;-69
2023/08/16 13:29:16;;;;;;;3.83;0.70;;;25.30;81.90;;;;;;5036906;28;20021;-69
2023/08/16 13:31:41;;;;;;;1.10;0.47;;;25.20;82.20;;;;;;5037062;28;20030;-70
2023/08/16 13:34:07;;;;;;;0.85;0.50;;;25.10;79.10;;;;;;5037090;28;20026;-69
2023/08/16 13:36:34;;;;;;;1.70;0.70;;;25.00;80.00;;;;;;5037038;28;20037;-69
2023/08/16 13:39:02;;;;;;;1.08;0.60;;;25.10;82.50;;;;;;5037145;28;20020;-69
2023/08/16 13:41:29;;;;;;;0.90;0.60;;;25.10;81.90;;;;;;5036794;28;20021;-69
2023/08/16 13:43:55;;;;;;;1.05;0.60;;;25.10;80.90;;;;;;5036809;28;20022;-69
2023/08/16 13:46:21;;;;;;;2.08;0.70;;;25.10;83.20;;;;;;5036838;28;20037;-70
2023/08/16 13:48:46;;;;;;;1.08;0.63;;;25.00;81.00;;;;;;5038156;28;20087;-69
2023/08/16 13:51:12;;;;;;;1.73;0.73;;;25.00;81.10;;;;;;5036645;28;20022;-69
2023/08/16 13:53:38;;;;;;;1.42;0.60;;;25.00;81.60;;;;;;5036711;28;20111;-69
2023/08/16 13:56:04;;;;;;;1.30;0.60;;;24.80;79.60;;;;;;5036326;28;20061;-69
2023/08/16 13:58:32;;;;;;;1.13;0.70;;;24.80;80.50;;;;;;5036889;28;20083;-69